createdAt,value
2017-07-20T00:00:39.327Z,99.99
2017-07-20T00:01:48.292Z,99.99
2017-07-20T00:02:57.248Z,99.99
2017-07-20T00:04:06.206Z,99.99
2017-07-20T00:05:15.162Z,99.99
2017-07-20T00:06:24.115Z,99.99
2017-07-20T00:07:33.081Z,99.99
2017-07-20T00:08:42.038Z,99.99
2017-07-20T00:09:51.037Z,99.99
2017-07-20T00:11:00.322Z,99.99
2017-07-20T00:12:09.293Z,99.99
2017-07-20T00:13:18.259Z,99.99
2017-07-20T00:14:27.219Z,99.99
2017-07-20T00:15:36.821Z,99.99
2017-07-20T00:16:45.785Z,99.99
2017-07-20T00:17:54.762Z,99.99
2017-07-20T00:19:03.727Z,99.99
2017-07-20T00:20:13.010Z,99.99
2017-07-20T00:21:22.000Z,99.99
2017-07-20T00:22:30.959Z,99.99
2017-07-20T00:23:39.920Z,99.99
2017-07-20T00:24:48.876Z,99.99
2017-07-20T00:25:57.839Z,99.99
2017-07-20T00:27:06.798Z,99.99
2017-07-20T00:28:15.760Z,99.99
2017-07-20T00:29:24.721Z,99.99
2017-07-20T00:30:33.684Z,99.99
2017-07-20T00:31:42.643Z,99.99
2017-07-20T00:32:51.597Z,99.99
2017-07-20T00:34:00.551Z,99.99
2017-07-20T00:35:09.512Z,99.99
2017-07-20T00:36:18.471Z,99.99
2017-07-20T00:37:27.430Z,99.99
2017-07-20T00:38:36.708Z,99.99
2017-07-20T00:39:45.665Z,99.99
2017-07-20T00:40:54.635Z,99.99
2017-07-20T00:42:03.592Z,99.99
2017-07-20T00:43:12.542Z,99.99
2017-07-20T00:44:21.509Z,99.99
2017-07-20T00:45:30.468Z,99.99
2017-07-20T00:46:39.436Z,99.99
2017-07-20T00:47:48.391Z,99.99
2017-07-20T00:48:57.355Z,99.99
2017-07-20T00:50:06.307Z,99.99
2017-07-20T00:51:15.261Z,99.99
2017-07-20T00:52:24.558Z,99.99
2017-07-20T00:53:33.516Z,99.99
2017-07-20T00:54:42.471Z,99.99
2017-07-20T00:55:51.416Z,99.99
2017-07-20T00:57:00.377Z,99.99
2017-07-20T00:58:09.330Z,99.99
2017-07-20T00:59:18.285Z,99.99
2017-07-20T01:00:27.246Z,99.99
2017-07-20T01:01:36.200Z,99.99
2017-07-20T01:02:45.169Z,99.99
2017-07-20T01:03:54.130Z,99.99
2017-07-20T01:05:03.096Z,99.99
2017-07-20T01:06:12.055Z,99.99
2017-07-20T01:07:21.021Z,99.99
2017-07-20T01:08:30.307Z,99.99
2017-07-20T01:09:39.267Z,99.99
2017-07-20T01:10:48.217Z,99.99
2017-07-20T01:11:57.179Z,99.99
2017-07-20T01:13:06.139Z,99.99
2017-07-20T01:14:15.415Z,99.99
2017-07-20T01:15:24.371Z,99.99
2017-07-20T01:16:33.321Z,99.99
2017-07-20T01:17:42.284Z,99.99
2017-07-20T01:18:51.244Z,99.99
2017-07-20T01:20:00.211Z,99.99
2017-07-20T01:21:09.487Z,99.99
2017-07-20T01:22:18.767Z,99.99
2017-07-20T01:23:27.722Z,99.99
2017-07-20T01:24:36.685Z,99.99
2017-07-20T01:25:45.642Z,99.99
2017-07-20T01:26:54.603Z,99.99
2017-07-20T01:28:03.565Z,99.99
2017-07-20T01:29:12.533Z,99.99
2017-07-20T01:30:21.486Z,99.99
2017-07-20T01:31:30.451Z,99.99
2017-07-20T01:32:39.409Z,99.99
2017-07-20T01:33:48.366Z,99.99
2017-07-20T01:34:57.326Z,99.99
2017-07-20T01:36:06.281Z,99.99
2017-07-20T01:37:15.244Z,99.99
2017-07-20T01:38:24.190Z,99.99
2017-07-20T01:39:33.146Z,99.99
2017-07-20T01:40:42.108Z,99.99
2017-07-20T01:41:51.072Z,99.99
2017-07-20T01:43:00.036Z,99.99
2017-07-20T01:44:08.996Z,99.99
2017-07-20T01:45:18.281Z,99.99
2017-07-20T01:46:27.239Z,99.99
2017-07-20T01:47:36.216Z,99.99
2017-07-20T01:48:45.177Z,99.99
2017-07-20T01:49:54.140Z,99.99
2017-07-20T01:51:03.095Z,99.99
2017-07-20T01:52:12.062Z,99.99
2017-07-20T01:53:21.027Z,99.99
2017-07-20T01:54:29.986Z,99.99
2017-07-20T01:55:38.963Z,99.99
2017-07-20T01:56:47.924Z,99.99
2017-07-20T01:57:56.875Z,99.99
2017-07-20T01:59:05.833Z,99.99
2017-07-20T02:00:14.793Z,99.99
2017-07-20T02:01:23.757Z,99.99
2017-07-20T02:02:32.722Z,99.99
2017-07-20T02:03:42.020Z,99.99
2017-07-20T02:04:50.986Z,99.99
2017-07-20T02:06:00.277Z,99.99
2017-07-20T02:07:09.237Z,99.99
2017-07-20T02:08:18.202Z,99.99
2017-07-20T02:09:27.161Z,99.99
2017-07-20T02:10:36.130Z,99.99
2017-07-20T02:11:45.100Z,99.99
2017-07-20T02:12:54.056Z,99.99
2017-07-20T02:14:03.015Z,99.99
2017-07-20T02:15:11.989Z,99.99
2017-07-20T02:16:20.953Z,99.99
2017-07-20T02:17:29.912Z,99.99
2017-07-20T02:18:38.871Z,99.99
2017-07-20T02:19:47.829Z,99.99
2017-07-20T02:20:56.786Z,99.99
2017-07-20T02:22:05.750Z,99.99
2017-07-20T02:23:14.710Z,99.99
2017-07-20T02:24:23.671Z,99.99
2017-07-20T02:25:32.646Z,99.99
2017-07-20T02:26:41.603Z,99.99
2017-07-20T02:27:50.558Z,99.99
2017-07-20T02:28:59.515Z,99.99
2017-07-20T02:30:08.507Z,99.99
2017-07-20T02:31:17.492Z,99.99
2017-07-20T02:32:26.456Z,99.99
2017-07-20T02:33:35.426Z,99.99
2017-07-20T02:34:44.386Z,99.99
2017-07-20T02:35:53.390Z,99.99
2017-07-20T02:37:02.355Z,99.99
2017-07-20T02:38:11.960Z,99.99
2017-07-20T02:39:20.912Z,99.99
2017-07-20T02:40:29.894Z,99.99
2017-07-20T02:41:38.864Z,99.99
2017-07-20T02:42:47.822Z,99.99
2017-07-20T02:43:56.784Z,99.99
2017-07-20T02:45:05.738Z,99.99
2017-07-20T02:46:14.700Z,99.99
2017-07-20T02:47:23.658Z,99.99
2017-07-20T02:48:32.621Z,99.99
2017-07-20T02:49:41.590Z,99.99
2017-07-20T02:50:50.549Z,99.99
2017-07-20T02:51:59.512Z,99.99
2017-07-20T02:53:08.471Z,99.99
2017-07-20T02:54:17.435Z,99.99
2017-07-20T02:55:26.403Z,99.99
2017-07-20T02:56:35.372Z,99.99
2017-07-20T02:57:44.340Z,99.99
2017-07-20T02:58:53.294Z,99.99
2017-07-20T03:00:02.259Z,99.99
2017-07-20T03:01:11.222Z,99.99
2017-07-20T03:02:20.177Z,99.99
2017-07-20T03:03:29.140Z,99.99
2017-07-20T03:04:38.100Z,99.99
2017-07-20T03:05:47.058Z,99.99
2017-07-20T03:06:56.027Z,99.99
2017-07-20T03:08:04.992Z,99.99
2017-07-20T03:09:13.967Z,99.99
2017-07-20T03:10:22.929Z,99.99
2017-07-20T03:11:31.904Z,99.99
2017-07-20T03:12:40.868Z,99.99
2017-07-20T03:13:49.825Z,99.99
2017-07-20T03:14:58.787Z,99.99
2017-07-20T03:16:07.756Z,99.99
2017-07-20T03:17:16.721Z,99.99
2017-07-20T03:18:25.684Z,99.99
2017-07-20T03:19:34.648Z,99.99
2017-07-20T03:20:43.601Z,99.99
2017-07-20T03:21:52.561Z,99.99
2017-07-20T03:23:01.531Z,99.99
2017-07-20T03:24:10.491Z,99.99
2017-07-20T03:25:19.771Z,99.99
2017-07-20T03:26:28.730Z,99.99
2017-07-20T03:27:38.012Z,99.99
2017-07-20T03:28:46.975Z,99.99
2017-07-20T03:29:55.933Z,99.99
2017-07-20T03:31:04.897Z,99.99
2017-07-20T03:32:13.872Z,99.99
2017-07-20T03:33:22.826Z,99.99
2017-07-20T03:34:31.783Z,99.99
2017-07-20T03:35:40.745Z,99.99
2017-07-20T03:36:49.705Z,99.99
2017-07-20T03:37:58.667Z,99.99
2017-07-20T03:39:07.946Z,99.99
2017-07-20T03:40:16.913Z,99.99
2017-07-20T03:41:25.877Z,99.99
2017-07-20T03:42:34.835Z,99.99
2017-07-20T03:43:43.797Z,99.99
2017-07-20T03:44:52.753Z,99.99
2017-07-20T03:46:01.714Z,99.99
2017-07-20T03:47:10.681Z,99.99
2017-07-20T03:48:19.636Z,99.99
2017-07-20T03:49:28.594Z,99.99
2017-07-20T03:50:37.551Z,99.99
2017-07-20T03:51:46.506Z,99.99
2017-07-20T03:52:55.457Z,99.99
2017-07-20T03:54:04.424Z,99.99
2017-07-20T03:55:13.386Z,99.99
2017-07-20T03:56:22.351Z,99.99
2017-07-20T03:57:31.312Z,99.99
2017-07-20T03:58:40.602Z,99.99
2017-07-20T03:59:49.565Z,99.99
2017-07-20T04:00:58.855Z,99.99
2017-07-20T04:02:07.821Z,99.99
2017-07-20T04:03:16.789Z,99.99
2017-07-20T04:04:25.741Z,99.99
2017-07-20T04:05:34.704Z,99.99
2017-07-20T04:06:44.005Z,99.99
2017-07-20T04:07:52.965Z,99.99
2017-07-20T04:09:02.580Z,99.99
2017-07-20T04:10:11.556Z,99.99
2017-07-20T04:11:20.827Z,99.99
2017-07-20T04:12:29.798Z,99.99
2017-07-20T04:13:38.753Z,99.99
2017-07-20T04:14:47.713Z,99.99
2017-07-20T04:15:56.670Z,99.99
2017-07-20T04:17:05.947Z,99.99
2017-07-20T04:18:14.908Z,99.99
2017-07-20T04:19:23.869Z,99.99
2017-07-20T04:20:32.837Z,99.99
2017-07-20T04:21:41.810Z,99.99
2017-07-20T04:22:50.768Z,99.99
2017-07-20T04:23:59.733Z,99.99
2017-07-20T04:25:09.016Z,99.99
2017-07-20T04:26:17.978Z,99.99
2017-07-20T04:27:26.940Z,99.99
2017-07-20T04:28:36.221Z,99.99
2017-07-20T04:29:45.185Z,99.99
2017-07-20T04:30:54.138Z,99.99
2017-07-20T04:32:03.102Z,99.99
2017-07-20T04:33:12.069Z,99.99
2017-07-20T04:34:21.024Z,99.99
2017-07-20T04:35:29.987Z,99.99
2017-07-20T04:36:38.939Z,99.99
2017-07-20T04:37:47.898Z,99.99
2017-07-20T04:38:56.856Z,99.99
2017-07-20T04:40:05.826Z,99.99
2017-07-20T04:41:14.782Z,99.99
2017-07-20T04:42:23.747Z,99.99
2017-07-20T04:43:32.703Z,99.99
2017-07-20T04:44:41.655Z,99.99
2017-07-20T04:45:50.611Z,99.99
2017-07-20T04:46:59.576Z,99.99
2017-07-20T04:48:08.532Z,99.99
2017-07-20T04:49:17.500Z,99.99
2017-07-20T04:50:26.464Z,99.99
2017-07-20T04:51:35.443Z,99.99
2017-07-20T04:52:44.404Z,99.99
2017-07-20T04:53:53.363Z,99.99
2017-07-20T04:55:02.322Z,99.99
2017-07-20T04:56:11.285Z,99.99
2017-07-20T04:57:20.249Z,99.99
2017-07-20T04:58:29.207Z,99.99
2017-07-20T04:59:38.178Z,99.99
2017-07-20T05:00:47.140Z,99.99
2017-07-20T05:01:56.099Z,99.99
2017-07-20T05:03:05.064Z,99.99
2017-07-20T05:04:14.046Z,99.99
2017-07-20T05:05:23.005Z,99.99
2017-07-20T05:06:32.293Z,99.99
2017-07-20T05:07:41.903Z,99.99
2017-07-20T05:08:51.187Z,99.99
2017-07-20T05:10:00.157Z,99.99
2017-07-20T05:11:09.115Z,99.99
2017-07-20T05:12:18.082Z,99.99
2017-07-20T05:13:27.706Z,99.99
2017-07-20T05:14:36.671Z,99.99
2017-07-20T05:15:45.960Z,99.99
2017-07-20T05:16:54.922Z,99.99
2017-07-20T05:18:03.886Z,99.99
2017-07-20T05:19:12.849Z,99.99
2017-07-20T05:20:21.807Z,99.99
2017-07-20T05:21:30.766Z,99.99
2017-07-20T05:22:39.728Z,99.99
2017-07-20T05:23:48.691Z,99.99
2017-07-20T05:24:57.648Z,99.99
2017-07-20T05:26:06.928Z,99.99
2017-07-20T05:27:15.898Z,99.99
2017-07-20T05:28:25.196Z,99.99
2017-07-20T05:29:34.164Z,99.99
2017-07-20T05:30:43.123Z,99.99
2017-07-20T05:31:52.417Z,99.99
2017-07-20T05:33:01.714Z,99.99
2017-07-20T05:34:10.671Z,99.99
2017-07-20T05:35:19.633Z,99.99
2017-07-20T05:36:28.926Z,99.99
2017-07-20T05:37:38.209Z,99.99
2017-07-20T05:38:47.172Z,99.99
2017-07-20T05:39:56.130Z,99.99
2017-07-20T05:41:05.102Z,99.99
2017-07-20T05:42:14.063Z,99.99
2017-07-20T05:43:23.027Z,99.99
2017-07-20T05:44:31.990Z,99.99
2017-07-20T05:45:40.947Z,99.99
2017-07-20T05:46:49.897Z,99.99
2017-07-20T05:47:58.855Z,99.99
2017-07-20T05:49:07.818Z,99.99
2017-07-20T05:50:16.779Z,99.99
2017-07-20T05:51:25.765Z,99.99
2017-07-20T05:52:34.721Z,99.99
2017-07-20T05:53:43.687Z,99.99
2017-07-20T05:54:52.647Z,99.99
2017-07-20T05:56:01.935Z,99.99
2017-07-20T05:57:11.225Z,99.99
2017-07-20T05:58:20.520Z,99.99
2017-07-20T05:59:29.504Z,99.99
2017-07-20T06:00:38.520Z,99.99
2017-07-20T06:01:47.478Z,99.99
2017-07-20T06:02:56.434Z,99.99
2017-07-20T06:04:05.394Z,99.99
2017-07-20T06:05:14.348Z,99.99
2017-07-20T06:06:23.298Z,99.99
2017-07-20T06:07:32.264Z,99.99
2017-07-20T06:08:41.247Z,99.99
2017-07-20T06:09:50.226Z,99.99
2017-07-20T06:10:59.198Z,99.99
2017-07-20T06:12:08.164Z,99.99
2017-07-20T06:13:17.450Z,99.99
2017-07-20T06:14:26.421Z,99.99
2017-07-20T06:15:35.379Z,99.99
2017-07-20T06:16:44.351Z,99.99
2017-07-20T06:17:53.644Z,99.99
2017-07-20T06:19:02.609Z,99.99
2017-07-20T06:20:11.592Z,99.99
2017-07-20T06:21:20.868Z,99.99
2017-07-20T06:22:29.823Z,99.99
2017-07-20T06:23:38.782Z,99.99
2017-07-20T06:24:47.743Z,99.99
2017-07-20T06:25:56.701Z,99.99
2017-07-20T06:27:05.667Z,99.99
2017-07-20T06:28:14.629Z,99.99
2017-07-20T06:29:23.589Z,99.99
2017-07-20T06:30:32.549Z,99.99
2017-07-20T06:31:41.518Z,99.99
2017-07-20T06:32:50.476Z,99.99
2017-07-20T06:33:59.453Z,99.99
2017-07-20T06:35:08.423Z,99.99
2017-07-20T06:36:17.406Z,99.99
2017-07-20T06:37:26.361Z,99.99
2017-07-20T06:38:35.328Z,99.99
2017-07-20T06:39:44.299Z,99.99
2017-07-20T06:40:53.261Z,99.99
2017-07-20T06:42:02.216Z,99.99
2017-07-20T06:43:11.199Z,99.99
2017-07-20T06:44:20.155Z,99.99
2017-07-20T06:45:29.443Z,99.99
2017-07-20T06:46:38.401Z,99.99
2017-07-20T06:47:47.468Z,99.99
2017-07-20T06:48:56.452Z,99.99
2017-07-20T06:50:05.407Z,99.99
2017-07-20T06:51:14.373Z,99.99
2017-07-20T06:52:23.374Z,99.99
2017-07-20T06:53:32.405Z,99.99
2017-07-20T06:54:41.556Z,99.99
2017-07-20T06:55:50.526Z,99.99
2017-07-20T06:56:59.561Z,99.99
2017-07-20T06:58:08.725Z,99.99
2017-07-20T06:59:17.744Z,99.99
2017-07-20T07:00:26.709Z,99.99
2017-07-20T07:01:35.666Z,99.99
2017-07-20T07:02:44.951Z,99.99
2017-07-20T07:03:54.031Z,99.99
2017-07-20T07:05:02.994Z,99.99
2017-07-20T07:06:12.089Z,99.99
2017-07-20T07:07:21.051Z,99.99
2017-07-20T07:08:30.058Z,99.99
2017-07-20T07:09:39.047Z,99.99
2017-07-20T07:10:48.353Z,99.99
2017-07-20T07:11:57.342Z,99.99
2017-07-20T07:13:06.329Z,99.99
2017-07-20T07:14:15.314Z,99.99
2017-07-20T07:15:24.401Z,99.99
2017-07-20T07:16:33.390Z,99.99
2017-07-20T07:17:42.452Z,99.99
2017-07-20T07:18:51.792Z,99.99
2017-07-20T07:20:00.768Z,99.99
2017-07-20T07:21:09.825Z,99.99
2017-07-20T07:22:18.826Z,99.99
2017-07-20T07:23:27.805Z,99.99
2017-07-20T07:24:36.903Z,99.99
2017-07-20T07:25:46.087Z,99.99
2017-07-20T07:26:55.090Z,99.99
2017-07-20T07:28:04.508Z,99.99
2017-07-20T07:29:13.570Z,99.99
2017-07-20T07:30:22.531Z,99.99
2017-07-20T07:31:31.583Z,99.99
2017-07-20T07:32:40.825Z,99.99
2017-07-20T07:33:50.066Z,99.99
2017-07-20T07:34:59.034Z,99.99
2017-07-20T07:36:08.049Z,99.99
2017-07-20T07:37:17.260Z,99.99
2017-07-20T07:38:26.240Z,99.99
2017-07-20T07:39:35.309Z,99.99
2017-07-20T07:40:44.327Z,99.99
2017-07-20T07:41:53.301Z,99.99
2017-07-20T07:43:02.599Z,99.99
2017-07-20T07:44:11.871Z,99.99
2017-07-20T07:45:21.177Z,99.99
2017-07-20T07:46:30.464Z,99.99
2017-07-20T07:47:39.631Z,99.99
2017-07-20T07:48:48.604Z,99.99
2017-07-20T07:49:57.564Z,99.99
2017-07-20T07:51:06.521Z,99.99
2017-07-20T07:52:15.488Z,99.99
2017-07-20T07:53:24.457Z,99.99
2017-07-20T07:54:33.415Z,99.99
2017-07-20T07:55:42.377Z,99.99
2017-07-20T07:56:51.339Z,99.99
2017-07-20T07:58:00.298Z,99.99
2017-07-20T07:59:09.265Z,99.99
2017-07-20T08:00:18.230Z,99.99
2017-07-20T08:01:27.188Z,99.99
2017-07-20T08:02:36.161Z,99.99
2017-07-20T08:03:45.121Z,99.99
2017-07-20T08:04:54.086Z,99.99
2017-07-20T08:06:03.051Z,99.99
2017-07-20T08:07:12.011Z,99.99
2017-07-20T08:08:20.977Z,99.99
2017-07-20T08:09:29.950Z,99.99
2017-07-20T08:10:39.235Z,99.99
2017-07-20T08:11:51.189Z,99.99
2017-07-20T08:13:00.147Z,99.99
2017-07-20T08:14:09.105Z,99.99
2017-07-20T08:15:18.066Z,99.99
2017-07-20T08:16:27.024Z,99.99
2017-07-20T08:17:35.989Z,99.99
2017-07-20T08:18:44.954Z,99.99
2017-07-20T08:19:53.912Z,99.99
2017-07-20T08:21:02.873Z,99.99
2017-07-20T08:22:11.830Z,99.99
2017-07-20T08:23:20.776Z,99.99
2017-07-20T08:24:30.082Z,99.99
2017-07-20T08:25:39.037Z,99.99
2017-07-20T08:26:47.992Z,99.99
2017-07-20T08:27:56.945Z,99.99
2017-07-20T08:29:05.904Z,99.99
2017-07-20T08:30:14.860Z,99.99
2017-07-20T08:31:23.811Z,99.99
2017-07-20T08:32:32.776Z,99.99
2017-07-20T08:33:41.758Z,99.99
2017-07-20T08:34:50.718Z,99.99
2017-07-20T08:35:59.674Z,99.99
2017-07-20T08:37:08.634Z,99.99
2017-07-20T08:38:17.594Z,99.99
2017-07-20T08:39:26.549Z,99.99
2017-07-20T08:40:35.500Z,99.99
2017-07-20T08:41:44.461Z,99.99
2017-07-20T08:42:53.435Z,99.99
2017-07-20T08:44:02.392Z,99.99
2017-07-20T08:45:11.354Z,99.99
2017-07-20T08:46:20.319Z,99.99
2017-07-20T08:47:29.277Z,99.99
2017-07-20T08:48:38.227Z,99.99
2017-07-20T08:49:47.195Z,99.99
2017-07-20T08:50:56.167Z,99.99
2017-07-20T08:52:05.127Z,99.99
2017-07-20T08:53:14.085Z,99.99
2017-07-20T08:54:23.039Z,99.99
2017-07-20T08:55:32.323Z,99.99
2017-07-20T08:56:41.288Z,99.99
2017-07-20T08:57:50.248Z,99.99
2017-07-20T08:58:59.237Z,99.99
2017-07-20T09:00:08.198Z,99.99
2017-07-20T09:01:17.478Z,99.99
2017-07-20T09:02:26.432Z,99.99
2017-07-20T09:03:35.398Z,99.99
2017-07-20T09:04:44.367Z,99.99
2017-07-20T09:05:53.336Z,99.99
2017-07-20T09:07:02.306Z,99.99
2017-07-20T09:08:11.268Z,99.99
2017-07-20T09:09:20.552Z,99.99
2017-07-20T09:10:29.519Z,99.99
2017-07-20T09:11:38.486Z,99.99
2017-07-20T09:12:47.446Z,99.99
2017-07-20T09:13:56.416Z,99.99
2017-07-20T09:15:05.378Z,99.99
2017-07-20T09:16:14.340Z,99.99
2017-07-20T09:17:23.294Z,99.99
2017-07-20T09:18:32.250Z,99.99
2017-07-20T09:19:41.210Z,99.99
2017-07-20T09:20:50.172Z,99.99
2017-07-20T09:21:59.129Z,99.99
2017-07-20T09:23:08.418Z,99.99
2017-07-20T09:24:17.376Z,99.99
2017-07-20T09:25:26.341Z,99.99
2017-07-20T09:26:35.296Z,99.99
2017-07-20T09:27:44.758Z,99.99
2017-07-20T09:28:55.569Z,99.99
2017-07-20T09:30:05.197Z,99.99
2017-07-20T09:31:14.544Z,99.99
2017-07-20T09:32:23.502Z,99.99
2017-07-20T09:33:32.472Z,99.99
2017-07-20T09:34:41.763Z,99.99
2017-07-20T09:35:50.719Z,99.99
2017-07-20T09:36:59.684Z,99.99
2017-07-20T09:38:08.663Z,99.99
2017-07-20T09:39:17.653Z,99.99
2017-07-20T09:40:26.648Z,99.99
2017-07-20T09:41:35.636Z,99.99
2017-07-20T09:42:44.609Z,99.99
2017-07-20T09:43:53.590Z,99.99
2017-07-20T09:45:02.570Z,99.99
2017-07-20T09:46:11.535Z,99.99
2017-07-20T09:47:20.514Z,99.99
2017-07-20T09:48:29.467Z,99.99
2017-07-20T09:49:38.418Z,99.99
2017-07-20T09:50:47.379Z,99.99
2017-07-20T09:51:56.364Z,99.99
2017-07-20T09:53:05.321Z,99.99
2017-07-20T09:54:14.278Z,99.99
2017-07-20T09:55:23.244Z,99.99
2017-07-20T09:56:32.210Z,99.99
2017-07-20T09:57:41.174Z,99.99
2017-07-20T09:58:50.136Z,99.99
2017-07-20T09:59:59.098Z,99.99
2017-07-20T10:01:08.050Z,99.99
2017-07-20T10:02:17.016Z,99.99
2017-07-20T10:03:25.976Z,99.99
2017-07-20T10:04:34.945Z,99.99
2017-07-20T10:05:43.907Z,99.99
2017-07-20T10:06:52.869Z,99.99
2017-07-20T10:08:01.835Z,99.99
2017-07-20T10:09:11.124Z,99.99
2017-07-20T10:10:20.117Z,99.99
2017-07-20T10:11:29.080Z,99.99
2017-07-20T10:12:38.042Z,99.99
2017-07-20T10:13:47.345Z,99.99
2017-07-20T10:14:56.354Z,99.99
2017-07-20T10:16:05.318Z,99.99
2017-07-20T10:17:14.275Z,99.99
2017-07-20T10:18:23.239Z,99.99
2017-07-20T10:19:32.221Z,99.99
2017-07-20T10:20:41.201Z,99.99
2017-07-20T10:21:50.270Z,99.99
2017-07-20T10:22:59.261Z,99.99
2017-07-20T10:24:08.233Z,99.99
2017-07-20T10:25:17.197Z,99.99
2017-07-20T10:26:26.168Z,99.99
2017-07-20T10:27:35.131Z,99.99
2017-07-20T10:28:44.097Z,99.99
2017-07-20T10:29:53.060Z,99.99
2017-07-20T10:31:02.018Z,99.99
2017-07-20T10:32:10.972Z,99.99
2017-07-20T10:33:19.923Z,99.99
2017-07-20T10:34:28.885Z,99.99
2017-07-20T10:35:37.846Z,99.99
2017-07-20T10:36:46.807Z,99.99
2017-07-20T10:37:55.765Z,99.99
2017-07-20T10:39:04.725Z,99.99
2017-07-20T10:40:13.673Z,99.99
2017-07-20T10:41:22.628Z,99.99
2017-07-20T10:42:31.589Z,99.99
2017-07-20T10:43:40.565Z,99.99
2017-07-20T10:44:49.528Z,99.99
2017-07-20T10:45:58.496Z,99.99
2017-07-20T10:47:07.462Z,99.99
2017-07-20T10:48:16.434Z,99.99
2017-07-20T10:49:25.398Z,99.99
2017-07-20T10:50:34.348Z,99.99
2017-07-20T10:51:43.309Z,99.99
2017-07-20T10:52:52.277Z,99.99
2017-07-20T10:54:01.246Z,99.99
2017-07-20T10:55:10.211Z,99.99
2017-07-20T10:56:19.160Z,99.99
2017-07-20T10:57:28.123Z,99.99
2017-07-20T10:58:37.412Z,99.99
2017-07-20T10:59:46.364Z,99.99
2017-07-20T11:00:55.327Z,99.99
2017-07-20T11:02:04.294Z,99.99
2017-07-20T11:03:13.268Z,99.99
2017-07-20T11:04:22.231Z,99.99
2017-07-20T11:05:31.190Z,99.99
2017-07-20T11:06:40.159Z,99.99
2017-07-20T11:07:49.122Z,99.99
2017-07-20T11:08:58.071Z,99.99
2017-07-20T11:10:07.062Z,99.99
2017-07-20T11:11:16.072Z,99.99
2017-07-20T11:12:25.149Z,99.99
2017-07-20T11:13:34.132Z,99.99
2017-07-20T11:14:43.115Z,99.99
2017-07-20T11:15:52.105Z,99.99
2017-07-20T11:17:01.098Z,99.99
2017-07-20T11:18:10.097Z,99.99
2017-07-20T11:19:19.079Z,99.99
2017-07-20T11:20:28.057Z,99.99
2017-07-20T11:21:37.036Z,99.99
2017-07-20T11:22:46.015Z,99.99
2017-07-20T11:23:55.009Z,99.99
2017-07-20T11:25:03.989Z,99.99
2017-07-20T11:26:13.714Z,99.99
2017-07-20T11:27:22.698Z,99.99
2017-07-20T11:28:31.681Z,99.99
2017-07-20T11:29:40.658Z,99.99
2017-07-20T11:30:49.640Z,99.99
2017-07-20T11:31:58.620Z,99.99
2017-07-20T11:33:07.593Z,99.99
2017-07-20T11:34:16.574Z,99.99
2017-07-20T11:35:25.569Z,99.99
2017-07-20T11:36:34.557Z,99.99
2017-07-20T11:37:43.531Z,99.99
2017-07-20T11:38:52.523Z,99.99
2017-07-20T11:40:01.501Z,99.99
2017-07-20T11:41:10.484Z,99.99
2017-07-20T11:42:19.469Z,99.99
2017-07-20T11:43:28.450Z,99.99
2017-07-20T11:44:37.428Z,99.99
2017-07-20T11:45:46.410Z,99.99
2017-07-20T11:46:55.394Z,99.99
2017-07-20T11:48:04.370Z,99.99
2017-07-20T11:49:13.344Z,99.99
2017-07-20T11:50:22.313Z,99.99
2017-07-20T11:51:32.106Z,99.99
2017-07-20T11:52:42.408Z,99.99
2017-07-20T11:53:51.360Z,99.99
2017-07-20T11:55:00.730Z,99.99
2017-07-20T11:56:09.700Z,99.99
2017-07-20T11:57:18.989Z,99.99
2017-07-20T11:58:27.956Z,99.99
2017-07-20T11:59:37.220Z,99.99
2017-07-20T12:00:47.287Z,99.99
2017-07-20T12:01:56.255Z,99.99
2017-07-20T12:03:05.213Z,99.99
2017-07-20T12:04:14.167Z,99.99
2017-07-20T12:05:23.133Z,99.99
2017-07-20T12:06:32.100Z,99.99
2017-07-20T12:07:41.809Z,99.99
2017-07-20T12:08:50.785Z,99.99
2017-07-20T12:09:59.764Z,99.99
2017-07-20T12:11:08.747Z,99.99
2017-07-20T12:12:17.717Z,99.99
2017-07-20T12:13:26.683Z,98.73
2017-07-20T12:14:35.635Z,99.7
2017-07-20T12:15:44.601Z,99.99
2017-07-20T12:16:54.492Z,99.99
2017-07-20T12:18:06.681Z,99.99
2017-07-20T12:19:17.946Z,99.99
2017-07-20T12:20:27.238Z,99.99
2017-07-20T12:21:36.837Z,99.99
2017-07-20T12:22:46.121Z,99.99
2017-07-20T12:23:55.080Z,99.99
2017-07-20T12:25:04.032Z,99.99
2017-07-20T12:26:13.069Z,99.99
2017-07-20T12:27:22.122Z,99.99
2017-07-20T12:28:31.160Z,99.99
2017-07-20T12:29:40.227Z,99.99
2017-07-20T12:30:49.188Z,99.6
2017-07-20T12:32:02.015Z,99.99
2017-07-20T12:33:22.108Z,99.99
2017-07-20T12:34:37.765Z,99.99
2017-07-20T12:35:46.727Z,99.99
2017-07-20T12:36:56.008Z,99.99
2017-07-20T12:38:04.982Z,99.99
2017-07-20T12:39:13.943Z,99.99
2017-07-20T12:40:22.906Z,99.99
2017-07-20T12:41:32.189Z,99.99
2017-07-20T12:42:41.153Z,99.99
2017-07-20T12:43:50.113Z,99.99
2017-07-20T12:44:59.456Z,99.99
2017-07-20T12:46:08.426Z,99.99
2017-07-20T12:47:17.392Z,99.99
2017-07-20T12:48:26.351Z,99.99
2017-07-20T12:49:35.316Z,99.99
2017-07-20T12:50:44.275Z,99.99
2017-07-20T12:51:53.239Z,99.99
2017-07-20T12:53:02.218Z,99.99
2017-07-20T12:54:11.500Z,99.99
2017-07-20T12:55:20.797Z,95.97
2017-07-20T12:56:29.758Z,99.99
2017-07-20T12:57:38.728Z,99.99
2017-07-20T12:58:47.683Z,99.99
2017-07-20T12:59:56.641Z,99.99
2017-07-20T13:01:05.931Z,99.99
2017-07-20T13:02:14.893Z,99.99
2017-07-20T13:03:23.864Z,99.99
2017-07-20T13:04:32.826Z,99.99
2017-07-20T13:05:41.786Z,99.99
2017-07-20T13:06:51.067Z,99.99
2017-07-20T13:08:00.032Z,99.99
2017-07-20T13:09:08.985Z,98.25
2017-07-20T13:10:17.951Z,99.99
2017-07-20T13:11:26.905Z,99.99
2017-07-20T13:12:35.870Z,99.99
2017-07-20T13:13:44.835Z,99.99
2017-07-20T13:14:54.451Z,99.99
2017-07-20T13:16:03.746Z,99.99
2017-07-20T13:17:13.037Z,99.99
2017-07-20T13:18:22.320Z,98.83
2017-07-20T13:19:31.292Z,95.43
2017-07-20T13:20:40.246Z,95.72
2017-07-20T13:21:49.531Z,96.11
2017-07-20T13:22:58.494Z,99.7
2017-07-20T13:24:07.456Z,99.99
2017-07-20T13:25:16.475Z,98.93
2017-07-20T13:26:25.450Z,99.22
2017-07-20T13:27:34.420Z,99.8
2017-07-20T13:28:43.375Z,98.54
2017-07-20T13:29:52.343Z,97.37
2017-07-20T13:31:01.631Z,95.72
2017-07-20T13:32:10.633Z,96.79
2017-07-20T13:33:19.603Z,90.48
2017-07-20T13:34:28.561Z,93.35
2017-07-20T13:35:37.516Z,93.73
2017-07-20T13:36:46.502Z,92.32
2017-07-20T13:37:55.473Z,95.57
2017-07-20T13:39:04.443Z,94.26
2017-07-20T13:40:13.411Z,94.36
2017-07-20T13:41:22.397Z,95.62
2017-07-20T13:42:31.423Z,95.24
2017-07-20T13:43:40.406Z,92.42
2017-07-20T13:44:49.416Z,91.45
2017-07-20T13:45:58.405Z,89.9
2017-07-20T13:47:07.394Z,89.61
2017-07-20T13:48:16.717Z,87.86
2017-07-20T13:49:25.705Z,88.15
2017-07-20T13:50:34.696Z,87.96
2017-07-20T13:51:44.021Z,88.54
2017-07-20T13:52:53.331Z,88.97
2017-07-20T13:54:02.341Z,82.95
2017-07-20T13:55:11.977Z,86.21
2017-07-20T13:56:20.959Z,84.99
2017-07-20T13:57:29.942Z,84.41
2017-07-20T13:58:38.929Z,84.99
2017-07-20T13:59:47.911Z,82.95
2017-07-20T14:00:56.890Z,82.81
2017-07-20T14:02:05.875Z,83.24
2017-07-20T14:03:14.850Z,84.01
2017-07-20T14:04:23.831Z,84.99
2017-07-20T14:05:32.822Z,84.46
2017-07-20T14:06:41.813Z,84.66
2017-07-20T14:07:50.804Z,84.36
2017-07-20T14:08:59.788Z,85.14
2017-07-20T14:10:08.782Z,82.42
2017-07-20T14:11:17.770Z,82.13
2017-07-20T14:12:26.748Z,81.93
2017-07-20T14:13:35.741Z,82.32
2017-07-20T14:14:44.728Z,82.23
2017-07-20T14:15:53.719Z,81.45
2017-07-20T14:17:02.728Z,81.45
2017-07-20T14:18:11.722Z,77.95
2017-07-20T14:19:20.706Z,79.12
2017-07-20T14:20:29.699Z,78.34
2017-07-20T14:21:38.685Z,73.58
2017-07-20T14:22:47.678Z,72.81
2017-07-20T14:23:56.673Z,73.78
2017-07-20T14:25:05.664Z,73.88
2017-07-20T14:26:14.655Z,72.13
2017-07-20T14:27:23.676Z,75.04
2017-07-20T14:28:32.665Z,76.11
2017-07-20T14:29:41.664Z,76.79
2017-07-20T14:30:50.642Z,72.42
2017-07-20T14:31:59.642Z,71.64
2017-07-20T14:33:08.970Z,71.51
2017-07-20T14:34:17.966Z,74.04
2017-07-20T14:35:26.953Z,74.43
2017-07-20T14:36:36.270Z,73.36
2017-07-20T14:37:45.259Z,74.23
2017-07-20T14:38:54.241Z,75.88
2017-07-20T14:40:03.224Z,77.34
2017-07-20T14:41:12.209Z,78.21
2017-07-20T14:42:21.515Z,78.5
2017-07-20T14:43:30.504Z,78.44
2017-07-20T14:44:39.809Z,74.43
2017-07-20T14:45:48.786Z,76.11
2017-07-20T14:46:57.765Z,77.18
2017-07-20T14:48:06.742Z,74.46
2017-07-20T14:49:15.703Z,76.79